createdAt,value
2023-05-01T00:02:03.759Z,96805.44
2023-05-01T00:04:30.473Z,96917.53
2023-05-01T00:06:57.760Z,96910.59
2023-05-01T00:09:24.680Z,96820.81
2023-05-01T00:11:51.376Z,96838.13
2023-05-01T00:14:18.031Z,96936.94
2023-05-01T00:16:46.293Z,96824.88
2023-05-01T00:19:16.532Z,96838.81
2023-05-01T00:21:43.340Z,96838.69
2023-05-01T00:24:09.943Z,96873.88
2023-05-01T00:26:36.907Z,96928.41
2023-05-01T00:29:03.635Z,96898.53
2023-05-01T00:31:30.305Z,96884.13
2023-05-01T00:33:57.750Z,96809.03
2023-05-01T00:36:24.375Z,96912.38
2023-05-01T00:38:51.018Z,96852.94
2023-05-01T00:41:17.710Z,96950.88
2023-05-01T00:43:44.424Z,96794.44
2023-05-01T00:46:11.382Z,96972.00
2023-05-01T00:48:38.074Z,96844.06
2023-05-01T00:51:05.122Z,96910.28
2023-05-01T00:53:33.328Z,96818.16
2023-05-01T00:56:00.192Z,96594.78
2023-05-01T00:58:26.837Z,96903.53
2023-05-01T01:00:53.497Z,96762.09
2023-05-01T01:03:20.178Z,96884.00
2023-05-01T01:05:57.254Z,96938.63
2023-05-01T01:08:32.573Z,96844.22
2023-05-01T01:11:05.420Z,96943.38
2023-05-01T01:13:36.911Z,96726.97
2023-05-01T01:16:13.629Z,96948.06
2023-05-01T01:19:02.734Z,96938.44
2023-05-01T01:21:35.185Z,96893.81
2023-05-01T01:24:16.981Z,96931.75
2023-05-01T01:27:02.443Z,96933.84
2023-05-01T01:29:48.413Z,96925.63
2023-05-01T01:32:23.913Z,96927.97
2023-05-01T01:35:02.045Z,96892.25
2023-05-01T01:37:30.524Z,96635.00
2023-05-01T01:40:08.059Z,96906.31
2023-05-01T01:42:39.130Z,96790.31
2023-05-01T01:45:10.908Z,96820.31
2023-05-01T01:47:37.560Z,96831.91
2023-05-01T01:50:05.562Z,96895.97
2023-05-01T01:52:32.246Z,96903.91
2023-05-01T01:55:07.713Z,96711.28
2023-05-01T01:57:35.592Z,96796.28
2023-05-01T02:00:02.202Z,96877.22
2023-05-01T02:02:29.013Z,96779.19
2023-05-01T02:04:57.144Z,96719.03
2023-05-01T02:07:23.807Z,96604.31
2023-05-01T02:09:50.866Z,96884.22
2023-05-01T02:12:18.367Z,96863.66
2023-05-01T02:14:44.986Z,96636.09
2023-05-01T02:17:11.755Z,96861.56
2023-05-01T02:19:40.300Z,96574.22
2023-05-01T02:22:06.914Z,96683.09
2023-05-01T02:24:33.573Z,96455.19
2023-05-01T02:27:21.178Z,96789.56
2023-05-01T02:29:47.795Z,96796.44
2023-05-01T02:32:14.566Z,96887.78
2023-05-01T02:34:42.287Z,96789.78
2023-05-01T02:37:11.194Z,96737.63
2023-05-01T02:39:38.545Z,96726.16
2023-05-01T02:42:05.262Z,96715.06
2023-05-01T02:44:44.300Z,96799.00
2023-05-01T02:47:11.312Z,96712.13
2023-05-01T02:49:37.966Z,96856.66
2023-05-01T02:52:05.179Z,96841.97
2023-05-01T02:54:31.778Z,96753.06
2023-05-01T02:56:59.452Z,96863.28
2023-05-01T02:59:26.069Z,96836.72
2023-05-01T03:01:53.010Z,96863.91
2023-05-01T03:04:19.726Z,96785.28
2023-05-01T03:06:46.407Z,96889.94
2023-05-01T03:09:13.580Z,96795.13
2023-05-01T03:11:40.412Z,96665.56
2023-05-01T03:14:07.369Z,96739.66
2023-05-01T03:16:34.093Z,96834.31
2023-05-01T03:19:00.748Z,96805.16
2023-05-01T03:21:27.553Z,96860.28
2023-05-01T03:23:54.652Z,96763.59
2023-05-01T03:26:21.359Z,96840.75
2023-05-01T03:28:48.318Z,96794.38
2023-05-01T03:31:15.199Z,96814.56
2023-05-01T03:33:41.786Z,96747.38
2023-05-01T03:36:11.590Z,96690.28
2023-05-01T03:38:38.187Z,96863.31
2023-05-01T03:41:05.448Z,96816.69
2023-05-01T03:43:32.140Z,96778.00
2023-05-01T03:45:59.044Z,96792.75
2023-05-01T03:48:25.761Z,96807.44
2023-05-01T03:50:52.485Z,96761.91
2023-05-01T03:53:19.156Z,96858.25
2023-05-01T03:55:45.867Z,96864.78
2023-05-01T03:58:12.813Z,96771.63
2023-05-01T04:00:39.468Z,96810.94
2023-05-01T04:03:06.407Z,96834.72
2023-05-01T04:05:33.521Z,96790.34
2023-05-01T04:08:00.280Z,96764.63
2023-05-01T04:10:26.909Z,96869.56
2023-05-01T04:12:53.480Z,96766.91
2023-05-01T04:15:20.592Z,96753.50
2023-05-01T04:17:47.870Z,96792.81
2023-05-01T04:20:14.692Z,96650.44
2023-05-01T04:22:41.317Z,96752.63
2023-05-01T04:25:09.214Z,96736.84
2023-05-01T04:27:35.821Z,96515.22
2023-05-01T04:30:02.486Z,96612.66
2023-05-01T04:32:29.195Z,96745.38
2023-05-01T04:34:56.337Z,96785.34
2023-05-01T04:37:23.050Z,96716.78
2023-05-01T04:39:50.954Z,96820.19
2023-05-01T04:42:17.660Z,96767.59
2023-05-01T04:44:45.907Z,96857.03
2023-05-01T04:47:12.730Z,96768.03
2023-05-01T04:49:39.433Z,96748.81
2023-05-01T04:52:06.106Z,96452.31
2023-05-01T04:54:32.722Z,96807.94
2023-05-01T04:56:59.364Z,96734.09
2023-05-01T04:59:25.958Z,96811.69
2023-05-01T05:01:52.668Z,96593.97
2023-05-01T05:04:19.321Z,96818.81
2023-05-01T05:06:46.142Z,96819.31
2023-05-01T05:09:13.403Z,96618.13
2023-05-01T05:11:40.152Z,96759.59
2023-05-01T05:14:06.856Z,96741.53
2023-05-01T05:16:34.642Z,96834.69
2023-05-01T05:19:01.344Z,96827.78
2023-05-01T05:21:27.972Z,96722.75
2023-05-01T05:23:54.656Z,96772.41
2023-05-01T05:26:21.947Z,96793.41
2023-05-01T05:28:48.591Z,96763.50
2023-05-01T05:31:15.217Z,96814.47
2023-05-01T05:33:41.898Z,96793.00
2023-05-01T05:36:08.734Z,96784.63
2023-05-01T05:38:35.381Z,96800.09
2023-05-01T05:41:02.014Z,96761.41
2023-05-01T05:43:28.786Z,96822.75
2023-05-01T05:45:59.097Z,96779.63
2023-05-01T05:48:25.911Z,96754.28
2023-05-01T05:50:52.787Z,96755.38
2023-05-01T05:53:20.155Z,96783.41
2023-05-01T05:55:47.303Z,96828.00
2023-05-01T05:58:20.260Z,96780.75
2023-05-01T06:00:48.338Z,96665.06
2023-05-01T06:03:15.447Z,96766.63
2023-05-01T06:05:43.366Z,96758.34
2023-05-01T06:08:10.502Z,96792.44
2023-05-01T06:10:37.512Z,96814.63
2023-05-01T06:13:13.665Z,96796.38
2023-05-01T06:15:41.385Z,96801.84
2023-05-01T06:18:08.378Z,96799.56
2023-05-01T06:20:35.368Z,96698.56
2023-05-01T06:23:01.985Z,96741.88
2023-05-01T06:25:28.643Z,96779.91
2023-05-01T06:27:55.390Z,96827.25
2023-05-01T06:30:22.091Z,96769.63
2023-05-01T06:32:49.293Z,96820.97
2023-05-01T06:35:16.100Z,96798.94
2023-05-01T06:37:42.789Z,96731.34
2023-05-01T06:40:09.927Z,96588.88
2023-05-01T06:42:37.330Z,96763.97
2023-05-01T06:45:04.223Z,96784.69
2023-05-01T06:47:30.906Z,96787.97
2023-05-01T06:49:57.882Z,96784.41
2023-05-01T06:52:24.931Z,96759.66
2023-05-01T06:54:51.601Z,96803.59
2023-05-01T06:57:18.206Z,96751.78
2023-05-01T06:59:45.247Z,96744.13
2023-05-01T07:02:11.977Z,96777.69
2023-05-01T07:04:38.838Z,96640.09
2023-05-01T07:07:05.484Z,96760.66
2023-05-01T07:09:32.153Z,96673.91
2023-05-01T07:11:59.008Z,96745.31
2023-05-01T07:14:25.674Z,96777.28
2023-05-01T07:16:52.378Z,96724.22
2023-05-01T07:19:19.092Z,96690.56
2023-05-01T07:21:45.877Z,96745.16
2023-05-01T07:24:12.732Z,96731.19
2023-05-01T07:26:39.316Z,96747.31
2023-05-01T07:29:06.148Z,96682.72
2023-05-01T07:31:32.855Z,96715.38
2023-05-01T07:33:59.620Z,96542.84
2023-05-01T07:36:26.311Z,96738.53
2023-05-01T07:38:53.168Z,96787.19
2023-05-01T07:41:19.828Z,96774.16
2023-05-01T07:43:46.493Z,96700.38
2023-05-01T07:46:13.147Z,96769.41
2023-05-01T07:48:40.088Z,96737.88
2023-05-01T07:51:06.752Z,96643.19
2023-05-01T07:53:33.374Z,96547.91
2023-05-01T07:56:06.343Z,96795.03
2023-05-01T07:58:33.106Z,96789.94
2023-05-01T08:01:00.556Z,96779.66
2023-05-01T08:03:31.084Z,96803.97
2023-05-01T08:05:58.001Z,96780.06
2023-05-01T08:08:24.933Z,96741.94
2023-05-01T08:10:51.872Z,96733.91
2023-05-01T08:13:18.602Z,96755.41
2023-05-01T08:15:47.155Z,96746.38
2023-05-01T08:18:19.997Z,96659.75
2023-05-01T08:20:48.155Z,96742.44
2023-05-01T08:23:27.229Z,96703.06
2023-05-01T08:25:53.904Z,96701.63
2023-05-01T08:28:21.390Z,96649.53
2023-05-01T08:30:49.497Z,96697.66
2023-05-01T08:33:16.559Z,96756.28
2023-05-01T08:35:43.427Z,96788.03
2023-05-01T08:38:11.359Z,96760.72
2023-05-01T08:40:38.394Z,96597.28
2023-05-01T08:43:05.285Z,96700.69
2023-05-01T08:45:36.292Z,96723.56
2023-05-01T08:48:06.995Z,96754.28
2023-05-01T08:50:39.572Z,96663.31
2023-05-01T08:53:06.737Z,96694.22
2023-05-01T08:55:33.987Z,96679.72
2023-05-01T08:58:00.811Z,96614.06
2023-05-01T09:00:27.634Z,96708.63
2023-05-01T09:02:54.327Z,96685.19
2023-05-01T09:05:21.265Z,96728.81
2023-05-01T09:07:48.053Z,96709.00
2023-05-01T09:10:15.919Z,96663.38
2023-05-01T09:12:44.923Z,96699.31
2023-05-01T09:15:11.992Z,96543.56
2023-05-01T09:17:38.804Z,96591.63
2023-05-01T09:20:06.227Z,96443.59
2023-05-01T09:22:33.508Z,96645.59
2023-05-01T09:25:00.238Z,96646.00
2023-05-01T09:27:37.093Z,96439.13
2023-05-01T09:30:06.034Z,96689.25
2023-05-01T09:32:33.227Z,96663.78
2023-05-01T09:35:13.685Z,96713.69
2023-05-01T09:37:40.614Z,96733.88
2023-05-01T09:40:09.179Z,96680.34
2023-05-01T09:42:58.768Z,96703.16
2023-05-01T09:45:26.719Z,96638.72
2023-05-01T09:47:53.936Z,96804.50
2023-05-01T09:50:31.528Z,96685.78
2023-05-01T09:52:58.228Z,96718.13
2023-05-01T09:55:25.956Z,96729.44
2023-05-01T09:57:53.040Z,96635.88
2023-05-01T10:00:22.246Z,96581.31
2023-05-01T10:02:49.515Z,96724.41
2023-05-01T10:05:16.337Z,96475.72
2023-05-01T10:07:59.690Z,96647.63
2023-05-01T10:10:26.642Z,96486.78
2023-05-01T10:12:53.645Z,96679.34
2023-05-01T10:15:26.623Z,96683.56
2023-05-01T10:17:54.188Z,96647.78
2023-05-01T10:20:21.563Z,96614.44
2023-05-01T10:22:49.402Z,96676.50
2023-05-01T10:25:16.824Z,96723.03
2023-05-01T10:27:43.602Z,96622.53
2023-05-01T10:30:10.766Z,96645.97
2023-05-01T10:32:37.996Z,96707.03
2023-05-01T10:35:08.851Z,96669.44
2023-05-01T10:37:49.153Z,96620.91
2023-05-01T10:40:43.550Z,96732.28
2023-05-01T10:43:27.992Z,96659.75
2023-05-01T10:46:09.974Z,96721.41
2023-05-01T10:48:39.835Z,96716.53
2023-05-01T10:51:24.955Z,96716.13
2023-05-01T10:54:23.412Z,96707.00
2023-05-01T10:56:50.310Z,96635.47
2023-05-01T10:59:16.938Z,96459.38
2023-05-01T11:01:48.233Z,96650.38
2023-05-01T11:04:24.632Z,96678.16
2023-05-01T11:07:08.492Z,96689.47
2023-05-01T11:09:55.633Z,96650.44
2023-05-01T11:12:48.178Z,96689.56
2023-05-01T11:15:28.612Z,96672.81
2023-05-01T11:17:56.096Z,96591.06
2023-05-01T11:20:26.005Z,96686.06
2023-05-01T11:22:53.730Z,96570.00
2023-05-01T11:25:21.572Z,96473.69
2023-05-01T11:27:49.504Z,96639.47
2023-05-01T11:30:16.284Z,96494.25
2023-05-01T11:32:47.201Z,96569.16
2023-05-01T11:35:24.098Z,96558.22
2023-05-01T11:37:55.984Z,96403.25
2023-05-01T11:40:30.184Z,96589.34
2023-05-01T11:43:04.263Z,96564.47
2023-05-01T11:45:31.181Z,96607.38
2023-05-01T11:47:58.780Z,96585.03
2023-05-01T11:50:36.750Z,96629.19
2023-05-01T11:53:04.300Z,96622.25
2023-05-01T11:55:31.901Z,96611.72
2023-05-01T11:57:59.343Z,96623.38
2023-05-01T12:00:37.599Z,96592.94
2023-05-01T12:03:08.529Z,96650.19
2023-05-01T12:05:37.332Z,96531.19
2023-05-01T12:08:15.151Z,96568.03
2023-05-01T12:11:03.718Z,96641.94
2023-05-01T12:13:30.416Z,96429.03
2023-05-01T12:15:57.283Z,96562.13
2023-05-01T12:18:24.002Z,96536.75
2023-05-01T12:20:52.294Z,96359.97
2023-05-01T12:23:30.388Z,96630.88
2023-05-01T12:25:57.519Z,96612.69
2023-05-01T12:28:24.318Z,96617.16
2023-05-01T12:30:50.988Z,96600.56
2023-05-01T12:33:18.978Z,96523.59
2023-05-01T12:35:48.187Z,96461.28
2023-05-01T12:38:16.632Z,96613.09
2023-05-01T12:41:02.011Z,96539.94
2023-05-01T12:43:34.267Z,96501.25
2023-05-01T12:46:01.133Z,96577.47
2023-05-01T12:48:28.110Z,96495.16
2023-05-01T12:50:55.212Z,96572.28
2023-05-01T12:53:25.851Z,96502.91
2023-05-01T12:55:56.738Z,96574.31
2023-05-01T12:58:23.820Z,96580.63
2023-05-01T13:00:54.886Z,96522.09
2023-05-01T13:03:26.198Z,96411.72
2023-05-01T13:06:05.970Z,96577.94
2023-05-01T13:08:34.171Z,96530.09
2023-05-01T13:11:02.950Z,96409.91
2023-05-01T13:13:35.109Z,96439.31
2023-05-01T13:16:12.542Z,96559.25
2023-05-01T13:18:52.356Z,96448.16
2023-05-01T13:21:21.552Z,96535.84
2023-05-01T13:24:11.204Z,96564.06
2023-05-01T13:26:38.183Z,96488.47
2023-05-01T13:29:05.945Z,96540.84
2023-05-01T13:31:32.706Z,96102.59
2023-05-01T13:33:59.634Z,96430.53
2023-05-01T13:36:40.826Z,96561.94
2023-05-01T13:39:07.536Z,96429.63
2023-05-01T13:41:35.389Z,96447.06
2023-05-01T13:44:02.083Z,96537.44
2023-05-01T13:46:28.775Z,96472.78
2023-05-01T13:48:56.401Z,96466.13
2023-05-01T13:51:24.714Z,96428.09
2023-05-01T13:53:53.429Z,96536.84
2023-05-01T13:56:21.755Z,96250.88
2023-05-01T13:58:48.703Z,96450.97
2023-05-01T14:01:16.765Z,96440.56
2023-05-01T14:03:43.646Z,96400.06
2023-05-01T14:06:14.486Z,96511.69
2023-05-01T14:08:41.803Z,96413.78
2023-05-01T14:11:08.843Z,96479.69
2023-05-01T14:13:43.594Z,96434.88
2023-05-01T14:16:11.749Z,96390.81
2023-05-01T14:18:45.624Z,96475.44
2023-05-01T14:21:15.865Z,96217.22
2023-05-01T14:23:42.795Z,96388.16
2023-05-01T14:26:09.891Z,96332.94
2023-05-01T14:28:41.668Z,96454.66
2023-05-01T14:31:08.554Z,96411.97
2023-05-01T14:33:44.391Z,96455.97
2023-05-01T14:36:11.848Z,96455.47
2023-05-01T14:38:40.284Z,96280.56
2023-05-01T14:41:08.348Z,96447.34
2023-05-01T14:43:36.868Z,96475.13
2023-05-01T14:46:03.535Z,96347.25
2023-05-01T14:48:33.822Z,96444.13
2023-05-01T14:51:00.529Z,96357.34
2023-05-01T14:53:28.174Z,96304.00
2023-05-01T14:55:54.859Z,96419.59
2023-05-01T14:58:21.486Z,96410.19
2023-05-01T15:00:48.274Z,96332.22
2023-05-01T15:03:15.008Z,96413.84
2023-05-01T15:05:41.935Z,96392.88
2023-05-01T15:08:09.179Z,96394.31
2023-05-01T15:10:36.046Z,96418.13
2023-05-01T15:13:02.824Z,96464.06
2023-05-01T15:15:46.763Z,96434.19
2023-05-01T15:18:13.478Z,96431.34
2023-05-01T15:20:40.099Z,96385.25
2023-05-01T15:23:06.693Z,96406.78
2023-05-01T15:25:33.414Z,96373.41
2023-05-01T15:28:00.212Z,96283.00
2023-05-01T15:30:27.104Z,96402.75
2023-05-01T15:32:55.908Z,96463.84
2023-05-01T15:35:23.667Z,96441.63
2023-05-01T15:37:50.962Z,96342.13
2023-05-01T15:40:17.869Z,96426.00
2023-05-01T15:42:47.979Z,96397.75
2023-05-01T15:45:14.790Z,96413.50
2023-05-01T15:47:41.601Z,96396.56
2023-05-01T15:50:10.898Z,96424.88
2023-05-01T15:52:38.194Z,96400.38
2023-05-01T15:55:05.401Z,96475.03
2023-05-01T15:57:33.232Z,96348.19
2023-05-01T16:00:00.293Z,96410.88
2023-05-01T16:02:27.434Z,96478.09
2023-05-01T16:04:54.131Z,96424.47
2023-05-01T16:07:21.828Z,96387.59
2023-05-01T16:09:49.270Z,96386.59
2023-05-01T16:12:17.188Z,96405.97
2023-05-01T16:14:44.047Z,96459.25
2023-05-01T16:17:10.795Z,96302.94
2023-05-01T16:19:37.469Z,96352.75
2023-05-01T16:22:05.048Z,96337.66
2023-05-01T16:24:32.962Z,96374.97
2023-05-01T16:27:00.040Z,96385.47
2023-05-01T16:29:27.206Z,96412.53
2023-05-01T16:31:53.947Z,96419.78
2023-05-01T16:34:24.108Z,96443.19
2023-05-01T16:36:50.829Z,96422.38
2023-05-01T16:39:21.807Z,96440.78
2023-05-01T16:41:52.626Z,96387.28
2023-05-01T16:44:21.072Z,96377.81
2023-05-01T16:46:55.452Z,96377.41
2023-05-01T16:49:23.173Z,96201.56
2023-05-01T16:51:50.194Z,96369.16
2023-05-01T16:54:17.061Z,96355.63
2023-05-01T16:56:43.951Z,96466.63
2023-05-01T16:59:10.898Z,96410.88
2023-05-01T17:01:40.434Z,96401.22
2023-05-01T17:04:10.266Z,96212.41
2023-05-01T17:06:37.340Z,96362.69
2023-05-01T17:09:04.250Z,96432.50
2023-05-01T17:11:40.294Z,96087.84
2023-05-01T17:14:10.091Z,96488.19
2023-05-01T17:16:40.015Z,96374.94
2023-05-01T17:19:12.132Z,96386.03
2023-05-01T17:21:50.111Z,96351.47
2023-05-01T17:24:16.990Z,96180.53
2023-05-01T17:26:46.933Z,96470.78
2023-05-01T17:29:13.801Z,96371.19
2023-05-01T17:31:40.516Z,96233.44
2023-05-01T17:34:07.268Z,96276.19
2023-05-01T17:36:33.878Z,96352.06
2023-05-01T17:39:01.491Z,96400.13
2023-05-01T17:41:38.381Z,96427.97
2023-05-01T17:44:05.168Z,96231.22
2023-05-01T17:46:32.303Z,96446.88
2023-05-01T17:48:59.027Z,96300.78
2023-05-01T17:51:25.714Z,96172.16
2023-05-01T17:53:53.068Z,96307.13
2023-05-01T17:56:19.716Z,96452.13
2023-05-01T17:58:46.478Z,96373.16
2023-05-01T18:01:13.132Z,96477.53
2023-05-01T18:03:39.994Z,96276.50
2023-05-01T18:06:06.807Z,96500.28
2023-05-01T18:08:33.578Z,96345.34
2023-05-01T18:11:00.217Z,96341.16
2023-05-01T18:13:38.190Z,96344.06
2023-05-01T18:16:05.420Z,96326.97
2023-05-01T18:18:32.356Z,96327.88
2023-05-01T18:20:59.100Z,96293.16
2023-05-01T18:23:25.740Z,96324.13
2023-05-01T18:25:52.410Z,96297.44
2023-05-01T18:28:19.221Z,96337.59
2023-05-01T18:30:46.325Z,96254.50
2023-05-01T18:33:13.117Z,96479.72
2023-05-01T18:35:43.183Z,96170.34
2023-05-01T18:38:13.206Z,96211.13
2023-05-01T18:40:39.885Z,96221.16
2023-05-01T18:43:06.639Z,96429.25
2023-05-01T18:45:33.308Z,96361.13
2023-05-01T18:48:03.912Z,96362.41
2023-05-01T18:50:31.207Z,96145.00
2023-05-01T18:52:58.008Z,96328.50
2023-05-01T18:55:25.454Z,96375.19
2023-05-01T18:57:52.269Z,96314.03
2023-05-01T19:00:20.412Z,96352.72
2023-05-01T19:02:51.967Z,96323.38
2023-05-01T19:05:19.216Z,96477.66
2023-05-01T19:07:46.746Z,96432.56
2023-05-01T19:10:13.622Z,96340.38
2023-05-01T19:12:41.317Z,96435.91
2023-05-01T19:15:08.758Z,96283.19
2023-05-01T19:17:35.443Z,96469.91
2023-05-01T19:20:04.169Z,96193.56
2023-05-01T19:22:31.063Z,96464.00
2023-05-01T19:24:57.717Z,96307.66
2023-05-01T19:27:25.513Z,96319.50
2023-05-01T19:29:53.900Z,96381.59
2023-05-01T19:32:20.989Z,96303.75
2023-05-01T19:34:47.664Z,96399.31
2023-05-01T19:37:14.585Z,96389.59
2023-05-01T19:39:41.171Z,96494.13
2023-05-01T19:42:07.864Z,96423.19
2023-05-01T19:44:34.527Z,96334.00
2023-05-01T19:47:02.000Z,96300.56
2023-05-01T19:49:28.711Z,96377.84
2023-05-01T19:51:57.484Z,96319.81
2023-05-01T19:54:26.160Z,96481.59
2023-05-01T19:56:52.976Z,96277.41
2023-05-01T19:59:19.829Z,96308.06
2023-05-01T20:01:46.558Z,96313.69
2023-05-01T20:04:13.335Z,96315.44
2023-05-01T20:06:40.049Z,96409.69
2023-05-01T20:09:07.273Z,96460.44
2023-05-01T20:11:34.092Z,96382.69
2023-05-01T20:14:02.218Z,96166.56
2023-05-01T20:16:30.200Z,96485.81
2023-05-01T20:18:56.878Z,96406.81
2023-05-01T20:21:23.484Z,96372.16
2023-05-01T20:23:50.803Z,96415.41
2023-05-01T20:26:19.010Z,96326.78
2023-05-01T20:28:45.824Z,96229.09
2023-05-01T20:31:13.670Z,96419.44
2023-05-01T20:33:40.432Z,96335.91
2023-05-01T20:36:07.421Z,96257.19
2023-05-01T20:38:39.243Z,96483.72
2023-05-01T20:41:05.943Z,96296.44
2023-05-01T20:43:32.589Z,96231.63
2023-05-01T20:45:59.330Z,96397.66
2023-05-01T20:48:26.990Z,96240.81
2023-05-01T20:50:53.777Z,96334.69
2023-05-01T20:53:20.475Z,96240.72
2023-05-01T20:55:47.127Z,96304.94
2023-05-01T20:58:13.966Z,96333.97
2023-05-01T21:00:40.634Z,96472.41
2023-05-01T21:03:07.475Z,96266.63
2023-05-01T21:05:34.298Z,96377.13
2023-05-01T21:08:02.195Z,96188.66
2023-05-01T21:10:28.861Z,96385.31
2023-05-01T21:12:56.422Z,96492.84
2023-05-01T21:15:23.171Z,96206.97
2023-05-01T21:17:49.933Z,96299.44
2023-05-01T21:20:17.560Z,96270.66
2023-05-01T21:22:46.257Z,96296.66
2023-05-01T21:25:12.989Z,96268.13
2023-05-01T21:27:41.446Z,96357.69
2023-05-01T21:30:08.753Z,96343.88
2023-05-01T21:32:41.690Z,96185.16
2023-05-01T21:35:10.122Z,96282.75
2023-05-01T21:37:37.256Z,96532.09
2023-05-01T21:40:06.434Z,96416.03
2023-05-01T21:42:38.115Z,96293.72
2023-05-01T21:45:13.102Z,96457.44
2023-05-01T21:47:44.541Z,96497.53
2023-05-01T21:50:12.680Z,96266.38
2023-05-01T21:52:39.548Z,96404.91
2023-05-01T21:55:10.819Z,96451.91
2023-05-01T21:57:38.338Z,96305.53
2023-05-01T22:00:09.100Z,96197.81
2023-05-01T22:02:38.807Z,96391.69
2023-05-01T22:05:06.286Z,96352.94
2023-05-01T22:07:33.492Z,96279.50
2023-05-01T22:10:01.419Z,96434.63
2023-05-01T22:12:28.507Z,96530.53
2023-05-01T22:14:55.314Z,96476.06
2023-05-01T22:17:24.745Z,96216.91
2023-05-01T22:19:51.804Z,96241.44
2023-05-01T22:22:18.955Z,96488.03
2023-05-01T22:24:45.881Z,96480.78
2023-05-01T22:27:12.550Z,96451.41
2023-05-01T22:29:39.140Z,96457.25
2023-05-01T22:32:06.352Z,96404.09
2023-05-01T22:34:33.034Z,96407.41
2023-05-01T22:36:59.641Z,96430.44
2023-05-01T22:39:26.292Z,96266.28
2023-05-01T22:41:53.029Z,96465.47
2023-05-01T22:44:21.627Z,96373.09
2023-05-01T22:46:49.128Z,96520.06
2023-05-01T22:49:15.784Z,96512.47
2023-05-01T22:51:42.460Z,96490.13
2023-05-01T22:54:09.084Z,96464.31
2023-05-01T22:56:35.755Z,95988.16
2023-05-01T22:59:02.449Z,96476.47
2023-05-01T23:01:29.427Z,96357.97
2023-05-01T23:03:56.736Z,96494.81
2023-05-01T23:06:23.544Z,96358.69
2023-05-01T23:08:56.078Z,96335.63
2023-05-01T23:11:22.778Z,96353.78
2023-05-01T23:13:49.994Z,96323.38
2023-05-01T23:16:16.867Z,96402.97
2023-05-01T23:18:43.825Z,96287.53
2023-05-01T23:21:11.091Z,96303.13
2023-05-01T23:23:37.773Z,96284.75
2023-05-01T23:26:04.435Z,96247.16
2023-05-01T23:28:31.138Z,96537.31
2023-05-01T23:30:59.107Z,96367.78
2023-05-01T23:33:26.631Z,96341.03
2023-05-01T23:35:53.337Z,96272.47
2023-05-01T23:38:20.031Z,96345.69
2023-05-01T23:40:47.220Z,96279.94
2023-05-01T23:43:13.907Z,96478.63
2023-05-01T23:45:40.663Z,96483.28
2023-05-01T23:48:07.354Z,96407.34
2023-05-01T23:50:34.006Z,96207.75
2023-05-01T23:53:04.920Z,96422.44
2023-05-01T23:55:31.711Z,96374.31
2023-05-01T23:57:58.387Z,96438.97
